sensor_id;sensor_type;location;lat;lon;timestamp;pressure;altitude;pressure_sealevel;temperature
74915;BMP280;63475;45.140;-75.616;2022-12-07T00:00:21;101289.44;;;4.79
74915;BMP280;63475;45.140;-75.616;2022-12-07T00:01:30;101289.44;;;4.79
74915;BMP280;63475;45.140;-75.616;2022-12-07T00:02:31;101292.09;;;4.79
74915;BMP280;63475;45.140;-75.616;2022-12-07T00:03:32;101284.00;;;4.71
74915;BMP280;63475;45.140;-75.616;2022-12-07T00:04:33;101270.66;;;4.61
74915;BMP280;63475;45.140;-75.616;2022-12-07T00:05:34;101288.59;;;4.75
74915;BMP280;63475;45.140;-75.616;2022-12-07T00:06:37;101288.28;;;4.76
74915;BMP280;63475;45.140;-75.616;2022-12-07T00:07:38;101289.69;;;4.73
74915;BMP280;63475;45.140;-75.616;2022-12-07T00:08:39;101249.47;;;4.54
74915;BMP280;63475;45.140;-75.616;2022-12-07T00:09:40;101280.72;;;4.75
74915;BMP280;63475;45.140;-75.616;2022-12-07T00:10:42;101268.25;;;4.71
74915;BMP280;63475;45.140;-75.616;2022-12-07T00:11:43;101270.88;;;4.71
74915;BMP280;63475;45.140;-75.616;2022-12-07T00:12:44;101246.94;;;4.57
74915;BMP280;63475;45.140;-75.616;2022-12-07T00:13:46;101270.88;;;4.71
74915;BMP280;63475;45.140;-75.616;2022-12-07T00:14:47;101280.06;;;4.78
74915;BMP280;63475;45.140;-75.616;2022-12-07T00:15:47;101274.81;;;4.78
74915;BMP280;63475;45.140;-75.616;2022-12-07T00:16:50;101277.78;;;4.76
74915;BMP280;63475;45.140;-75.616;2022-12-07T00:17:52;101279.97;;;4.74
74915;BMP280;63475;45.140;-75.616;2022-12-07T00:18:53;101274.72;;;4.74
74915;BMP280;63475;45.140;-75.616;2022-12-07T00:19:54;101273.28;;;4.77
74915;BMP280;63475;45.140;-75.616;2022-12-07T00:21:05;101274.03;;;4.77
74915;BMP280;63475;45.140;-75.616;2022-12-07T00:22:06;101259.28;;;4.72
74915;BMP280;63475;45.140;-75.616;2022-12-07T00:23:07;101273.28;;;4.77
74915;BMP280;63475;45.140;-75.616;2022-12-07T00:24:10;101258.03;;;4.66
74915;BMP280;63475;45.140;-75.616;2022-12-07T00:25:11;101273.72;;;4.79
74915;BMP280;63475;45.140;-75.616;2022-12-07T00:26:16;101274.81;;;4.78
74915;BMP280;63475;45.140;-75.616;2022-12-07T00:27:17;101271.75;;;4.76
74915;BMP280;63475;45.140;-75.616;2022-12-07T00:28:18;101252.63;;;4.59
74915;BMP280;63475;45.140;-75.616;2022-12-07T00:29:21;101277.78;;;4.76
74915;BMP280;63475;45.140;-75.616;2022-12-07T00:30:24;101254.56;;;4.62
74915;BMP280;63475;45.140;-75.616;2022-12-07T00:31:28;101274.81;;;4.78
74915;BMP280;63475;45.140;-75.616;2022-12-07T00:32:29;101270.88;;;4.71
74915;BMP280;63475;45.140;-75.616;2022-12-07T00:33:31;101277.00;;;4.76
74915;BMP280;63475;45.140;-75.616;2022-12-07T00:34:32;101278.88;;;4.75
74915;BMP280;63475;45.140;-75.616;2022-12-07T00:35:33;101251.94;;;4.62
74915;BMP280;63475;45.140;-75.616;2022-12-07T00:36:35;101257.88;;;4.75
74915;BMP280;63475;45.140;-75.616;2022-12-07T00:37:36;101251.31;;;4.69
74915;BMP280;63475;45.140;-75.616;2022-12-07T00:38:38;101230.19;;;4.62
74915;BMP280;63475;45.140;-75.616;2022-12-07T00:39:39;101249.53;;;4.73
74915;BMP280;63475;45.140;-75.616;2022-12-07T00:40:40;101248.47;;;4.74
74915;BMP280;63475;45.140;-75.616;2022-12-07T00:41:41;101235.34;;;4.58
74915;BMP280;63475;45.140;-75.616;2022-12-07T00:42:42;101249.47;;;4.69
74915;BMP280;63475;45.140;-75.616;2022-12-07T00:43:44;101250.56;;;4.68
74915;BMP280;63475;45.140;-75.616;2022-12-07T00:44:45;101244.16;;;4.66
74915;BMP280;63475;45.140;-75.616;2022-12-07T00:45:46;101240.16;;;4.72
74915;BMP280;63475;45.140;-75.616;2022-12-07T00:46:47;101258.53;;;4.72
74915;BMP280;63475;45.140;-75.616;2022-12-07T00:47:48;101244.97;;;4.70
74915;BMP280;63475;45.140;-75.616;2022-12-07T00:48:50;101244.63;;;4.71
74915;BMP280;63475;45.140;-75.616;2022-12-07T00:49:51;101240.50;;;4.70
74915;BMP280;63475;45.140;-75.616;2022-12-07T00:50:52;101240.06;;;4.68
74915;BMP280;63475;45.140;-75.616;2022-12-07T00:51:53;101239.66;;;4.66
74915;BMP280;63475;45.140;-75.616;2022-12-07T00:52:54;101244.91;;;4.66
74915;BMP280;63475;45.140;-75.616;2022-12-07T00:53:55;101231.72;;;4.63
74915;BMP280;63475;45.140;-75.616;2022-12-07T00:54:56;101237.03;;;4.66
74915;BMP280;63475;45.140;-75.616;2022-12-07T00:55:57;101217.75;;;4.59
74915;BMP280;63475;45.140;-75.616;2022-12-07T00:56:58;101233.28;;;4.67
74915;BMP280;63475;45.140;-75.616;2022-12-07T00:57:59;101236.34;;;4.69
74915;BMP280;63475;45.140;-75.616;2022-12-07T00:59:02;101233.28;;;4.67
74915;BMP280;63475;45.140;-75.616;2022-12-07T01:00:04;101235.25;;;4.70
74915;BMP280;63475;45.140;-75.616;2022-12-07T01:01:06;101237.88;;;4.70
74915;BMP280;63475;45.140;-75.616;2022-12-07T01:02:08;101230.00;;;4.70
74915;BMP280;63475;45.140;-75.616;2022-12-07T01:03:10;101231.44;;;4.68
74915;BMP280;63475;45.140;-75.616;2022-12-07T01:04:12;101214.34;;;4.58
74915;BMP280;63475;45.140;-75.616;2022-12-07T01:05:13;101233.28;;;4.67
74915;BMP280;63475;45.140;-75.616;2022-12-07T01:06:16;101224.19;;;4.61
74915;BMP280;63475;45.140;-75.616;2022-12-07T01:07:17;101226.47;;;4.63
74915;BMP280;63475;45.140;-75.616;2022-12-07T01:08:18;101210.47;;;4.52
74915;BMP280;63475;45.140;-75.616;2022-12-07T01:09:19;101220.13;;;4.64
74915;BMP280;63475;45.140;-75.616;2022-12-07T01:10:20;101220.03;;;4.60
74915;BMP280;63475;45.140;-75.616;2022-12-07T01:11:24;101219.69;;;4.62
74915;BMP280;63475;45.140;-75.616;2022-12-07T01:12:25;101223.50;;;4.64
74915;BMP280;63475;45.140;-75.616;2022-12-07T01:13:26;101224.25;;;4.65
74915;BMP280;63475;45.140;-75.616;2022-12-07T01:14:28;101224.25;;;4.65
74915;BMP280;63475;45.140;-75.616;2022-12-07T01:15:29;101222.06;;;4.67
74915;BMP280;63475;45.140;-75.616;2022-12-07T01:16:31;101223.56;;;4.68
74915;BMP280;63475;45.140;-75.616;2022-12-07T01:17:32;101192.72;;;4.46
74915;BMP280;63475;45.140;-75.616;2022-12-07T01:18:35;101222.78;;;4.67
74915;BMP280;63475;45.140;-75.616;2022-12-07T01:19:36;101222.75;;;4.64
74915;BMP280;63475;45.140;-75.616;2022-12-07T01:20:37;101224.59;;;4.63
74915;BMP280;63475;45.140;-75.616;2022-12-07T01:21:38;101196.78;;;4.43
74915;BMP280;63475;45.140;-75.616;2022-12-07T01:22:40;101219.69;;;4.62
74915;BMP280;63475;45.140;-75.616;2022-12-07T01:23:42;101223.06;;;4.62
74915;BMP280;63475;45.140;-75.616;2022-12-07T01:24:43;101195.41;;;4.49
74915;BMP280;63475;45.140;-75.616;2022-12-07T01:25:44;101214.44;;;4.62
74915;BMP280;63475;45.140;-75.616;2022-12-07T01:26:49;101221.97;;;4.63
74915;BMP280;63475;45.140;-75.616;2022-12-07T01:27:50;101211.72;;;4.58
74915;BMP280;63475;45.140;-75.616;2022-12-07T01:28:51;101213.69;;;4.61
74915;BMP280;63475;45.140;-75.616;2022-12-07T01:29:55;101204.19;;;4.57
74915;BMP280;63475;45.140;-75.616;2022-12-07T01:31:00;101204.28;;;4.60
74915;BMP280;63475;45.140;-75.616;2022-12-07T01:32:01;101205.38;;;4.59
74915;BMP280;63475;45.140;-75.616;2022-12-07T01:33:02;101209.88;;;4.59
74915;BMP280;63475;45.140;-75.616;2022-12-07T01:34:03;101200.13;;;4.59
74915;BMP280;63475;45.140;-75.616;2022-12-07T01:35:05;101204.63;;;4.59
74915;BMP280;63475;45.140;-75.616;2022-12-07T01:36:32;101204.72;;;4.62
74915;BMP280;63475;45.140;-75.616;2022-12-07T01:37:37;101203.19;;;4.61
74915;BMP280;63475;45.140;-75.616;2022-12-07T01:38:38;101199.78;;;4.61
74915;BMP280;63475;45.140;-75.616;2022-12-07T01:39:39;101200.91;;;4.60
74915;BMP280;63475;45.140;-75.616;2022-12-07T01:40:41;101201.66;;;4.60
74915;BMP280;63475;45.140;-75.616;2022-12-07T01:41:42;101195.66;;;4.60
74915;BMP280;63475;45.140;-75.616;2022-12-07T01:42:43;101197.09;;;4.57
74915;BMP280;63475;45.140;-75.616;2022-12-07T01:44:17;101197.50;;;4.59
74915;BMP280;63475;45.140;-75.616;2022-12-07T01:46:19;101188.44;;;4.57
74915;BMP280;63475;45.140;-75.616;2022-12-07T01:47:20;101196.41;;;4.60
74915;BMP280;63475;45.140;-75.616;2022-12-07T01:48:39;101185.78;;;4.53
74915;BMP280;63475;45.140;-75.616;2022-12-07T01:49:44;101175.78;;;4.43
74915;BMP280;63475;45.140;-75.616;2022-12-07T01:50:48;101191.84;;;4.57
74915;BMP280;63475;45.140;-75.616;2022-12-07T01:51:52;101182.22;;;4.46
74915;BMP280;63475;45.140;-75.616;2022-12-07T01:52:56;101158.34;;;4.35
74915;BMP280;63475;45.140;-75.616;2022-12-07T01:53:59;101185.06;;;4.56
74915;BMP280;63475;45.140;-75.616;2022-12-07T01:55:09;101189.56;;;4.56
74915;BMP280;63475;45.140;-75.616;2022-12-07T01:56:14;101188.03;;;4.55
74915;BMP280;63475;45.140;-75.616;2022-12-07T01:57:17;101184.66;;;4.54
74915;BMP280;63475;45.140;-75.616;2022-12-07T01:58:18;101186.94;;;4.56
74915;BMP280;63475;45.140;-75.616;2022-12-07T01:59:23;101181.69;;;4.56
74915;BMP280;63475;45.140;-75.616;2022-12-07T02:00:25;101189.56;;;4.56
74915;BMP280;63475;45.140;-75.616;2022-12-07T02:01:26;101175.09;;;4.46
74915;BMP280;63475;45.140;-75.616;2022-12-07T02:04:07;101187.28;;;4.54
74915;BMP280;63475;45.140;-75.616;2022-12-07T02:05:08;101175.88;;;4.47
74915;BMP280;63475;45.140;-75.616;2022-12-07T02:06:11;101194.38;;;4.54
74915;BMP280;63475;45.140;-75.616;2022-12-07T02:07:12;101184.16;;;4.49
74915;BMP280;63475;45.140;-75.616;2022-12-07T02:08:14;101191.75;;;4.54
74915;BMP280;63475;45.140;-75.616;2022-12-07T02:09:15;101178.84;;;4.45
74915;BMP280;63475;45.140;-75.616;2022-12-07T02:10:23;101185.78;;;4.53
74915;BMP280;63475;45.140;-75.616;2022-12-07T02:11:24;101182.78;;;4.55
74915;BMP280;63475;45.140;-75.616;2022-12-07T02:12:25;101181.69;;;4.56
74915;BMP280;63475;45.140;-75.616;2022-12-07T02:13:30;101191.84;;;4.57
74915;BMP280;63475;45.140;-75.616;2022-12-07T02:14:31;101172.91;;;4.48
74915;BMP280;63475;45.140;-75.616;2022-12-07T02:16:21;101183.53;;;4.55
74915;BMP280;63475;45.140;-75.616;2022-12-07T02:17:27;101186.16;;;4.55
74915;BMP280;63475;45.140;-75.616;2022-12-07T02:18:48;101179.41;;;4.54
74915;BMP280;63475;45.140;-75.616;2022-12-07T02:20:22;101188.78;;;4.55
74915;BMP280;63475;45.140;-75.616;2022-12-07T02:24:13;101182.03;;;4.54
74915;BMP280;63475;45.140;-75.616;2022-12-07T02:28:34;101169.28;;;4.53
74915;BMP280;63475;45.140;-75.616;2022-12-07T02:30:54;101146.00;;;4.35
74915;BMP280;63475;45.140;-75.616;2022-12-07T02:32:22;101166.22;;;4.51
74915;BMP280;63475;45.140;-75.616;2022-12-07T02:33:37;101156.31;;;4.44
74915;BMP280;63475;45.140;-75.616;2022-12-07T02:34:49;101167.00;;;4.51
74915;BMP280;63475;45.140;-75.616;2022-12-07T02:36:02;101168.84;;;4.51
74915;BMP280;63475;45.140;-75.616;2022-12-07T02:37:17;101172.25;;;4.51
74915;BMP280;63475;45.140;-75.616;2022-12-07T02:39:48;101172.56;;;4.50
74915;BMP280;63475;45.140;-75.616;2022-12-07T02:42:12;101169.94;;;4.50
74915;BMP280;63475;45.140;-75.616;2022-12-07T02:43:43;101166.56;;;4.49
74915;BMP280;63475;45.140;-75.616;2022-12-07T02:44:46;101161.56;;;4.44
74915;BMP280;63475;45.140;-75.616;2022-12-07T02:45:48;101161.56;;;4.44
74915;BMP280;63475;45.140;-75.616;2022-12-07T02:46:55;101173.50;;;4.42
74915;BMP280;63475;45.140;-75.616;2022-12-07T02:47:59;101150.81;;;4.33
74915;BMP280;63475;45.140;-75.616;2022-12-07T02:49:01;101171.06;;;4.49
74915;BMP280;63475;45.140;-75.616;2022-12-07T02:50:05;101154.63;;;4.36
74915;BMP280;63475;45.140;-75.616;2022-12-07T02:51:06;101178.16;;;4.48
74915;BMP280;63475;45.140;-75.616;2022-12-07T02:52:08;101155.06;;;4.38
74915;BMP280;63475;45.140;-75.616;2022-12-07T02:53:49;101178.16;;;4.48
74915;BMP280;63475;45.140;-75.616;2022-12-07T02:54:49;101176.72;;;4.51
74915;BMP280;63475;45.140;-75.616;2022-12-07T02:55:50;101173.75;;;4.52
74915;BMP280;63475;45.140;-75.616;2022-12-07T02:58:13;101160.06;;;4.43
74915;BMP280;63475;45.140;-75.616;2022-12-07T03:00:39;101167.00;;;4.51
74915;BMP280;63475;45.140;-75.616;2022-12-07T03:02:08;101164.69;;;4.50
74915;BMP280;63475;45.140;-75.616;2022-12-07T03:03:14;101150.66;;;4.42
74915;BMP280;63475;45.140;-75.616;2022-12-07T03:06:49;101156.50;;;4.51
74915;BMP280;63475;45.140;-75.616;2022-12-07T03:09:51;101148.97;;;4.50
74915;BMP280;63475;45.140;-75.616;2022-12-07T03:11:06;101154.22;;;4.50
74915;BMP280;63475;45.140;-75.616;2022-12-07T03:12:37;101151.59;;;4.50
74915;BMP280;63475;45.140;-75.616;2022-12-07T03:14:50;101144.72;;;4.45
74915;BMP280;63475;45.140;-75.616;2022-12-07T03:15:59;101151.94;;;4.48
74915;BMP280;63475;45.140;-75.616;2022-12-07T03:17:18;101131.69;;;4.49
74915;BMP280;63475;45.140;-75.616;2022-12-07T03:18:23;101145.56;;;4.49
74915;BMP280;63475;45.140;-75.616;2022-12-07T03:19:26;101145.56;;;4.49
74915;BMP280;63475;45.140;-75.616;2022-12-07T03:20:29;101130.84;;;4.45
74915;BMP280;63475;45.140;-75.616;2022-12-07T03:21:38;101139.50;;;4.45
74915;BMP280;63475;45.140;-75.616;2022-12-07T03:22:41;101132.28;;;4.42
74915;BMP280;63475;45.140;-75.616;2022-12-07T03:23:48;101135.44;;;4.48
74915;BMP280;63475;45.140;-75.616;2022-12-07T03:24:56;101133.22;;;4.50
74915;BMP280;63475;45.140;-75.616;2022-12-07T03:26:00;101138.47;;;4.50
74915;BMP280;63475;45.140;-75.616;2022-12-07T03:27:09;101119.53;;;4.41
74915;BMP280;63475;45.140;-75.616;2022-12-07T03:28:16;101133.56;;;4.48
74915;BMP280;63475;45.140;-75.616;2022-12-07T03:29:29;101121.47;;;4.44
74915;BMP280;63475;45.140;-75.616;2022-12-07T03:30:48;101130.94;;;4.48
74915;BMP280;63475;45.140;-75.616;2022-12-07T03:32:14;101118.75;;;4.40
74915;BMP280;63475;45.140;-75.616;2022-12-07T03:33:24;101126.78;;;4.47
74915;BMP280;63475;45.140;-75.616;2022-12-07T03:34:34;101133.91;;;4.47
74915;BMP280;63475;45.140;-75.616;2022-12-07T03:35:53;101122.06;;;4.37
74915;BMP280;63475;45.140;-75.616;2022-12-07T03:37:01;101136.88;;;4.45
74915;BMP280;63475;45.140;-75.616;2022-12-07T03:38:23;101129.75;;;4.46
74915;BMP280;63475;45.140;-75.616;2022-12-07T03:41:59;101130.09;;;4.44
74915;BMP280;63475;45.140;-75.616;2022-12-07T03:43:01;101133.47;;;4.45
74915;BMP280;63475;45.140;-75.616;2022-12-07T03:44:02;101135.34;;;4.44
74915;BMP280;63475;45.140;-75.616;2022-12-07T03:45:04;101129.34;;;4.44
74915;BMP280;63475;45.140;-75.616;2022-12-07T03:47:48;101136.78;;;4.42
74915;BMP280;63475;45.140;-75.616;2022-12-07T03:49:24;101133.06;;;4.43
74915;BMP280;63475;45.140;-75.616;2022-12-07T03:50:35;101137.88;;;4.41
74915;BMP280;63475;45.140;-75.616;2022-12-07T03:53:13;101142.78;;;4.42
74915;BMP280;63475;45.140;-75.616;2022-12-07T03:55:42;101120.66;;;4.24
74915;BMP280;63475;45.140;-75.616;2022-12-07T03:56:44;101144.22;;;4.39
74915;BMP280;63475;45.140;-75.616;2022-12-07T03:57:48;101144.97;;;4.40
74915;BMP280;63475;45.140;-75.616;2022-12-07T03:58:52;101139.22;;;4.34
74915;BMP280;63475;45.140;-75.616;2022-12-07T03:59:54;101143.88;;;4.41
74915;BMP280;63475;45.140;-75.616;2022-12-07T04:00:56;101137.88;;;4.41
74915;BMP280;63475;45.140;-75.616;2022-12-07T04:02:02;101122.91;;;4.25
74915;BMP280;63475;45.140;-75.616;2022-12-07T04:03:03;101144.97;;;4.40
74915;BMP280;63475;45.140;-75.616;2022-12-07T04:04:04;101142.03;;;4.42
74915;BMP280;63475;45.140;-75.616;2022-12-07T04:05:05;101138.63;;;4.41
74915;BMP280;63475;45.140;-75.616;2022-12-07T04:06:07;101143.13;;;4.41
74915;BMP280;63475;45.140;-75.616;2022-12-07T04:07:08;101135.25;;;4.41
74915;BMP280;63475;45.140;-75.616;2022-12-07T04:08:09;101124.50;;;4.30
74915;BMP280;63475;45.140;-75.616;2022-12-07T04:09:09;101132.63;;;4.41
74915;BMP280;63475;45.140;-75.616;2022-12-07T04:10:10;101122.41;;;4.35
74915;BMP280;63475;45.140;-75.616;2022-12-07T04:11:11;101133.81;;;4.43
74915;BMP280;63475;45.140;-75.616;2022-12-07T04:12:12;101137.53;;;4.42
74915;BMP280;63475;45.140;-75.616;2022-12-07T04:13:13;101126.28;;;4.42
74915;BMP280;63475;45.140;-75.616;2022-12-07T04:14:14;101113.34;;;4.33
74915;BMP280;63475;45.140;-75.616;2022-12-07T04:15:22;101129.25;;;4.40
74915;BMP280;63475;45.140;-75.616;2022-12-07T04:16:23;101121.38;;;4.40
74915;BMP280;63475;45.140;-75.616;2022-12-07T04:17:23;101123.25;;;4.39
74915;BMP280;63475;45.140;-75.616;2022-12-07T04:18:24;101119.53;;;4.41
74915;BMP280;63475;45.140;-75.616;2022-12-07T04:19:27;101112.75;;;4.39
74915;BMP280;63475;45.140;-75.616;2022-12-07T04:20:29;101097.59;;;4.33
74915;BMP280;63475;45.140;-75.616;2022-12-07T04:21:30;101113.19;;;4.42
74915;BMP280;63475;45.140;-75.616;2022-12-07T04:22:31;101110.56;;;4.42
74915;BMP280;63475;45.140;-75.616;2022-12-07T04:23:32;101086.94;;;4.26
74915;BMP280;63475;45.140;-75.616;2022-12-07T04:24:33;101106.31;;;4.37
74915;BMP280;63475;45.140;-75.616;2022-12-07T04:25:34;101087.56;;;4.19
74915;BMP280;63475;45.140;-75.616;2022-12-07T04:26:35;101115.03;;;4.41
74915;BMP280;63475;45.140;-75.616;2022-12-07T04:27:36;101089.19;;;4.24
74915;BMP280;63475;45.140;-75.616;2022-12-07T04:28:37;101120.28;;;4.41
74915;BMP280;63475;45.140;-75.616;2022-12-07T04:29:38;101120.28;;;4.41
74915;BMP280;63475;45.140;-75.616;2022-12-07T04:30:39;101113.09;;;4.38
74915;BMP280;63475;45.140;-75.616;2022-12-07T04:31:40;101093.72;;;4.27
74915;BMP280;63475;45.140;-75.616;2022-12-07T04:32:41;101122.91;;;4.41
74915;BMP280;63475;45.140;-75.616;2022-12-07T04:33:42;101124.00;;;4.40
74915;BMP280;63475;45.140;-75.616;2022-12-07T04:34:43;101122.81;;;4.37
74915;BMP280;63475;45.140;-75.616;2022-12-07T04:35:43;101125.88;;;4.39
74915;BMP280;63475;45.140;-75.616;2022-12-07T04:36:45;101124.00;;;4.40
74915;BMP280;63475;45.140;-75.616;2022-12-07T04:37:47;101115.03;;;4.41
74915;BMP280;63475;45.140;-75.616;2022-12-07T04:38:48;101106.25;;;4.33
74915;BMP280;63475;45.140;-75.616;2022-12-07T04:39:49;101115.78;;;4.42
74915;BMP280;63475;45.140;-75.616;2022-12-07T04:40:50;101120.28;;;4.41
74915;BMP280;63475;45.140;-75.616;2022-12-07T04:41:52;101109.78;;;4.41
74915;BMP280;63475;45.140;-75.616;2022-12-07T04:42:53;101077.16;;;4.23
74915;BMP280;63475;45.140;-75.616;2022-12-07T04:44:01;101085.84;;;4.27
74915;BMP280;63475;45.140;-75.616;2022-12-07T04:45:03;101109.03;;;4.41
74915;BMP280;63475;45.140;-75.616;2022-12-07T04:46:04;101100.81;;;4.42
74915;BMP280;63475;45.140;-75.616;2022-12-07T04:47:05;101084.66;;;4.24
74915;BMP280;63475;45.140;-75.616;2022-12-07T04:48:06;101107.59;;;4.43
74915;BMP280;63475;45.140;-75.616;2022-12-07T04:49:07;101105.31;;;4.42
74915;BMP280;63475;45.140;-75.616;2022-12-07T04:50:09;101106.06;;;4.42
74915;BMP280;63475;45.140;-75.616;2022-12-07T04:51:10;101101.59;;;4.43
74915;BMP280;63475;45.140;-75.616;2022-12-07T04:52:11;101103.44;;;4.42
74915;BMP280;63475;45.140;-75.616;2022-12-07T04:53:12;101103.78;;;4.41
74915;BMP280;63475;45.140;-75.616;2022-12-07T04:54:14;101096.69;;;4.41
74915;BMP280;63475;45.140;-75.616;2022-12-07T04:55:15;101096.69;;;4.41
74915;BMP280;63475;45.140;-75.616;2022-12-07T04:56:17;101094.06;;;4.41
74915;BMP280;63475;45.140;-75.616;2022-12-07T04:57:18;101024.50;;;3.96
74915;BMP280;63475;45.140;-75.616;2022-12-07T04:58:19;101094.47;;;4.43
74915;BMP280;63475;45.140;-75.616;2022-12-07T04:59:19;101085.72;;;4.39
74915;BMP280;63475;45.140;-75.616;2022-12-07T05:00:21;101086.19;;;4.41
74915;BMP280;63475;45.140;-75.616;2022-12-07T05:01:22;101087.69;;;4.42
74915;BMP280;63475;45.140;-75.616;2022-12-07T05:02:23;101082.47;;;4.42
74915;BMP280;63475;45.140;-75.616;2022-12-07T05:03:24;101081.63;;;4.38
74915;BMP280;63475;45.140;-75.616;2022-12-07T05:04:25;101052.47;;;4.24
74915;BMP280;63475;45.140;-75.616;2022-12-07T05:05:26;101053.56;;;4.23
74915;BMP280;63475;45.140;-75.616;2022-12-07T05:06:27;101077.97;;;4.43
74915;BMP280;63475;45.140;-75.616;2022-12-07T05:07:28;101083.22;;;4.43
74915;BMP280;63475;45.140;-75.616;2022-12-07T05:08:29;101079.06;;;4.42
74915;BMP280;63475;45.140;-75.616;2022-12-07T05:09:30;101059.22;;;4.25
74915;BMP280;63475;45.140;-75.616;2022-12-07T05:10:31;101081.19;;;4.36
74915;BMP280;63475;45.140;-75.616;2022-12-07T05:11:32;101077.38;;;4.33
74915;BMP280;63475;45.140;-75.616;2022-12-07T05:12:39;101086.53;;;4.39
74915;BMP280;63475;45.140;-75.616;2022-12-07T05:13:39;101088.34;;;4.39
74915;BMP280;63475;45.140;-75.616;2022-12-07T05:14:40;101063.78;;;4.28
74915;BMP280;63475;45.140;-75.616;2022-12-07T05:15:41;101081.63;;;4.38
74915;BMP280;63475;45.140;-75.616;2022-12-07T05:16:48;101086.53;;;4.39
74915;BMP280;63475;45.140;-75.616;2022-12-07T05:17:49;101083.91;;;4.39
74915;BMP280;63475;45.140;-75.616;2022-12-07T05:18:52;101083.91;;;4.39
74915;BMP280;63475;45.140;-75.616;2022-12-07T05:19:53;101083.91;;;4.39
74915;BMP280;63475;45.140;-75.616;2022-12-07T05:20:54;101059.63;;;4.27
74915;BMP280;63475;45.140;-75.616;2022-12-07T05:21:56;101081.28;;;4.39
74915;BMP280;63475;45.140;-75.616;2022-12-07T05:22:57;101071.53;;;4.40
74915;BMP280;63475;45.140;-75.616;2022-12-07T05:23:59;101068.50;;;4.38
74915;BMP280;63475;45.140;-75.616;2022-12-07T05:24:59;101075.34;;;4.43
74915;BMP280;63475;45.140;-75.616;2022-12-07T05:26:00;101064.75;;;4.39
74915;BMP280;63475;45.140;-75.616;2022-12-07T05:27:01;101063.75;;;4.44
74915;BMP280;63475;45.140;-75.616;2022-12-07T05:28:03;101074.59;;;4.42
74915;BMP280;63475;45.140;-75.616;2022-12-07T05:29:04;101069.00;;;4.44
74915;BMP280;63475;45.140;-75.616;2022-12-07T05:30:06;101067.81;;;4.41
74915;BMP280;63475;45.140;-75.616;2022-12-07T05:31:07;101061.13;;;4.44
74915;BMP280;63475;45.140;-75.616;2022-12-07T05:32:08;101057.66;;;4.39
74915;BMP280;63475;45.140;-75.616;2022-12-07T05:33:09;101062.56;;;4.41
74915;BMP280;63475;45.140;-75.616;2022-12-07T05:34:10;101036.44;;;4.29
74915;BMP280;63475;45.140;-75.616;2022-12-07T05:35:11;101065.28;;;4.45
74915;BMP280;63475;45.140;-75.616;2022-12-07T05:36:12;101051.41;;;4.44
74915;BMP280;63475;45.140;-75.616;2022-12-07T05:37:13;101044.56;;;4.39
74915;BMP280;63475;45.140;-75.616;2022-12-07T05:38:14;101025.19;;;4.28
74915;BMP280;63475;45.140;-75.616;2022-12-07T05:39:15;101050.31;;;4.45
74915;BMP280;63475;45.140;-75.616;2022-12-07T05:40:16;101040.22;;;4.47
74915;BMP280;63475;45.140;-75.616;2022-12-07T05:41:19;101024.84;;;4.30
74915;BMP280;63475;45.140;-75.616;2022-12-07T05:42:39;101021.00;;;4.24
74915;BMP280;63475;45.140;-75.616;2022-12-07T05:43:40;101050.31;;;4.45
74915;BMP280;63475;45.140;-75.616;2022-12-07T05:44:45;101027.47;;;4.30
74915;BMP280;63475;45.140;-75.616;2022-12-07T05:45:46;101058.16;;;4.45
74915;BMP280;63475;45.140;-75.616;2022-12-07T05:46:47;101027.13;;;4.31
74915;BMP280;63475;45.140;-75.616;2022-12-07T05:47:48;101054.03;;;4.44
74915;BMP280;63475;45.140;-75.616;2022-12-07T05:48:49;101052.94;;;4.45
74915;BMP280;63475;45.140;-75.616;2022-12-07T05:49:50;101040.06;;;4.40
74915;BMP280;63475;45.140;-75.616;2022-12-07T05:50:52;101050.31;;;4.45
74915;BMP280;63475;45.140;-75.616;2022-12-07T05:51:53;101034.41;;;4.38
74915;BMP280;63475;45.140;-75.616;2022-12-07T05:52:54;101045.81;;;4.46
74915;BMP280;63475;45.140;-75.616;2022-12-07T05:53:55;101011.31;;;4.28
74915;BMP280;63475;45.140;-75.616;2022-12-07T05:54:56;101042.44;;;4.45
74915;BMP280;63475;45.140;-75.616;2022-12-07T05:55:56;101053.34;;;4.47
74915;BMP280;63475;45.140;-75.616;2022-12-07T05:56:58;101055.56;;;4.45
74915;BMP280;63475;45.140;-75.616;2022-12-07T05:57:58;101049.88;;;4.43
74915;BMP280;63475;45.140;-75.616;2022-12-07T05:59:18;101059.34;;;4.48
74915;BMP280;63475;45.140;-75.616;2022-12-07T06:00:26;101032.81;;;4.33
74915;BMP280;63475;45.140;-75.616;2022-12-07T06:01:27;101055.22;;;4.47
74915;BMP280;63475;45.140;-75.616;2022-12-07T06:02:28;101052.09;;;4.41
74915;BMP280;63475;45.140;-75.616;2022-12-07T06:03:28;101063.84;;;4.47
74915;BMP280;63475;45.140;-75.616;2022-12-07T06:04:33;101036.44;;;4.29
74915;BMP280;63475;45.140;-75.616;2022-12-07T06:05:34;101038.41;;;4.32
74915;BMP280;63475;45.140;-75.616;2022-12-07T06:06:35;101051.81;;;4.46
74915;BMP280;63475;45.140;-75.616;2022-12-07T06:07:36;101026.38;;;4.31
74915;BMP280;63475;45.140;-75.616;2022-12-07T06:08:37;101049.97;;;4.47
74915;BMP280;63475;45.140;-75.616;2022-12-07T06:09:38;101049.97;;;4.47
74915;BMP280;63475;45.140;-75.616;2022-12-07T06:10:39;101049.97;;;4.47
74915;BMP280;63475;45.140;-75.616;2022-12-07T06:11:40;101049.63;;;4.48
74915;BMP280;63475;45.140;-75.616;2022-12-07T06:13:00;101044.72;;;4.47
74915;BMP280;63475;45.140;-75.616;2022-12-07T06:14:01;101055.63;;;4.49
74915;BMP280;63475;45.140;-75.616;2022-12-07T06:15:02;101043.28;;;4.49
74915;BMP280;63475;45.140;-75.616;2022-12-07T06:16:03;101047.00;;;4.48
74915;BMP280;63475;45.140;-75.616;2022-12-07T06:17:04;101034.66;;;4.49
74915;BMP280;63475;45.140;-75.616;2022-12-07T06:18:05;101045.13;;;4.49
74915;BMP280;63475;45.140;-75.616;2022-12-07T06:19:06;101017.41;;;4.32
74915;BMP280;63475;45.140;-75.616;2022-12-07T06:20:07;101032.03;;;4.49
74915;BMP280;63475;45.140;-75.616;2022-12-07T06:21:08;101032.03;;;4.49
74915;BMP280;63475;45.140;-75.616;2022-12-07T06:22:09;101025.03;;;4.37
74915;BMP280;63475;45.140;-75.616;2022-12-07T06:23:12;101020.03;;;4.32
74915;BMP280;63475;45.140;-75.616;2022-12-07T06:24:14;101040.22;;;4.47
74915;BMP280;63475;45.140;-75.616;2022-12-07T06:25:15;101039.53;;;4.50